Time;durP1;ratioP1;P1;durP2;ratioP2;P2;SDS_P1;SDS_P2;PMS_P1;PMS_P2;Temp;Humidity;BMP_temperature;BMP_pressure;BME280_temperature;BME280_humidity;BME280_pressure;Samples;Min_cycle;Max_cycle;Signal;HPM_P1;HPM_P2
2021/08/17 00:00:01;;;;;;;14.65;12.82;;;;;;;18.34;87.64;99300.61;1735161;82;25732;-65
2021/08/17 00:02:27;;;;;;;17.73;12.53;;;;;;;18.32;87.59;99314.47;1735037;82;26398;-65
2021/08/17 00:04:54;;;;;;;18.57;12.63;;;;;;;18.27;87.55;99332.06;1735037;82;25701;-65
2021/08/17 00:14:08;;;;;;;15.25;12.43;;;;;;;18.15;88.75;99330.44;1735315;82;25677;-65
2021/08/17 00:16:34;;;;;;;16.12;11.97;;;;;;;18.15;89.28;99325.53;1735340;82;25641;-65
2021/08/17 00:19:00;;;;;;;19.48;13.03;;;;;;;18.15;89.30;99319.49;1735320;82;25653;-66
2021/08/17 00:21:27;;;;;;;18.67;13.98;;;;;;;18.18;89.63;99311.09;1735380;82;27274;-66
2021/08/17 00:23:53;;;;;;;17.65;12.82;;;;;;;18.20;89.73;99304.64;1735271;82;25737;-66
2021/08/17 00:26:19;;;;;;;18.85;12.37;;;;;;;18.22;89.97;99317.38;1705920;82;25752;-65
2021/08/17 00:28:45;;;;;;;17.73;11.75;;;;;;;18.22;89.60;99306.43;1735423;82;25705;-65
2021/08/17 00:31:12;;;;;;;18.17;11.95;;;;;;;18.25;89.77;99297.42;1735362;82;25641;-65
2021/08/17 00:33:38;;;;;;;15.05;11.68;;;;;;;18.28;89.67;99292.55;1735353;82;27268;-66
2021/08/17 00:36:06;;;;;;;15.35;12.75;;;;;;;18.31;89.67;99284.17;1735285;82;25633;-65
2021/08/17 00:38:37;;;;;;;14.45;11.53;;;;;;;18.33;89.74;99283.97;1735293;82;25757;-66
2021/08/17 00:41:09;;;;;;;22.05;12.70;;;;;;;18.36;89.77;99281.84;1735369;82;25743;-66
2021/08/17 00:43:37;;;;;;;18.37;12.70;;;;;;;18.40;89.94;99285.95;1735388;82;25745;-66
2021/08/17 00:46:06;;;;;;;19.17;12.37;;;;;;;18.41;89.71;99282.05;1735279;82;27927;-66
2021/08/17 00:48:40;;;;;;;12.88;11.55;;;;;;;18.41;89.55;99292.41;1735407;82;25792;-66
2021/08/17 00:51:08;;;;;;;15.38;11.05;;;;;;;18.41;89.36;99297.11;1735395;82;25831;-65
2021/08/17 00:53:38;;;;;;;16.60;11.68;;;;;;;18.37;89.14;99294.37;1735255;82;25899;-66
2021/08/17 00:56:06;;;;;;;17.07;11.40;;;;;;;18.36;88.98;99283.80;1735394;82;25666;-66
2021/08/17 00:58:32;;;;;;;17.75;11.80;;;;;;;18.37;89.21;99277.14;1735385;82;27341;-66
2021/08/17 01:00:58;;;;;;;21.33;12.50;;;;;;;18.38;89.37;99287.70;1735232;82;25839;-66
2021/08/17 01:03:27;;;;;;;20.23;12.33;;;;;;;18.41;89.70;99291.05;1735340;82;25808;-66
2021/08/17 01:05:54;;;;;;;17.40;11.73;;;;;;;18.43;89.70;99304.34;1735407;82;25700;-66
2021/08/17 01:08:20;;;;;;;15.45;12.18;;;;;;;18.41;89.54;99328.00;1706059;82;25731;-65
2021/08/17 01:10:46;;;;;;;20.52;13.48;;;;;;;18.37;89.71;99338.16;1735398;82;27324;-66
2021/08/17 01:13:12;;;;;;;23.95;13.65;;;;;;;18.34;89.77;99318.97;1735385;82;25761;-66
2021/08/17 01:15:39;;;;;;;16.27;13.58;;;;;;;18.33;89.97;99303.72;1735336;82;25911;-66
2021/08/17 01:18:07;;;;;;;20.82;13.38;;;;;;;18.33;90.29;99318.78;1735343;82;25737;-66
2021/08/17 01:20:36;;;;;;;16.42;13.05;;;;;;;18.32;90.24;99324.05;1735365;82;26322;-66
2021/08/17 01:23:02;;;;;;;18.05;13.75;;;;;;;18.32;90.33;99321.30;1706217;82;27295;-65
2021/08/17 01:25:32;;;;;;;19.48;14.03;;;;;;;18.32;90.45;99318.56;1735293;82;25812;-66
2021/08/17 01:27:58;;;;;;;21.50;13.68;;;;;;;18.34;90.62;99306.64;1735278;82;25651;-66
2021/08/17 01:30:24;;;;;;;22.15;14.13;;;;;;;18.35;90.69;99309.59;1735329;82;25973;-66
2021/08/17 01:32:50;;;;;;;20.75;14.33;;;;;;;18.34;90.75;99307.45;1735439;82;25686;-66
2021/08/17 01:35:17;;;;;;;21.77;13.15;;;;;;;18.34;90.70;99306.64;1735385;82;27381;-66
2021/08/17 01:37:43;;;;;;;17.25;12.30;;;;;;;18.33;90.61;99305.87;1735324;82;25779;-66
2021/08/17 01:40:12;;;;;;;19.87;13.18;;;;;;;18.33;90.42;99306.46;1735447;82;25775;-66
2021/08/17 01:42:51;;;;;;;14.80;13.18;;;;;;;18.33;90.65;99311.94;1706553;82;25703;-66
2021/08/17 01:45:21;;;;;;;19.17;13.32;;;;;;;18.32;90.52;99307.05;1735390;82;25948;-67
2021/08/17 01:47:50;;;;;;;17.65;12.65;;;;;;;18.33;90.63;99305.87;1735463;82;27976;-66
2021/08/17 01:50:19;;;;;;;20.60;13.23;;;;;;;18.35;90.73;99300.78;1735514;82;25641;-66
2021/08/17 01:52:45;;;;;;;17.48;12.78;;;;;;;18.37;90.82;99308.62;1735553;82;29892;-66
2021/08/17 01:55:13;;;;;;;21.00;11.85;;;;;;;18.37;90.77;99314.89;1735460;82;26429;-66
2021/08/17 01:57:40;;;;;;;14.45;11.57;;;;;;;18.34;90.32;99321.14;1735593;82;25713;-66
2021/08/17 02:00:11;;;;;;;14.45;11.12;;;;;;;18.31;90.11;99328.74;1735608;82;28032;-67
2021/08/17 02:02:39;;;;;;;12.28;10.60;;;;;;;18.27;89.92;99327.95;1706409;82;25713;-67
2021/08/17 02:05:08;;;;;;;14.73;10.43;;;;;;;18.25;89.97;99339.28;1735461;82;25759;-66
2021/08/17 02:07:34;;;;;;;13.08;10.30;;;;;;;18.22;89.87;99332.43;1735725;82;34791;-66
2021/08/17 02:10:02;;;;;;;16.32;10.38;;;;;;;18.20;89.93;99335.55;1735578;82;25650;-66
2021/08/17 02:12:28;;;;;;;15.58;10.65;;;;;;;18.16;89.75;99349.78;1735518;82;27490;-66
2021/08/17 02:14:55;;;;;;;14.05;11.25;;;;;;;18.13;90.16;99345.06;1735513;82;25767;-66
2021/08/17 02:17:21;;;;;;;16.60;11.30;;;;;;;18.10;89.81;99339.02;1735604;82;25720;-66
2021/08/17 02:19:47;;;;;;;14.90;11.63;;;;;;;18.07;89.89;99350.12;1735487;82;25724;-67
2021/08/17 02:22:14;;;;;;;17.50;11.83;;;;;;;18.05;89.88;99347.00;1735584;82;25732;-66
2021/08/17 02:24:41;;;;;;;17.23;11.85;;;;;;;18.03;89.92;99351.27;1735629;82;28115;-66
2021/08/17 02:27:08;;;;;;;16.37;11.85;;;;;;;18.01;90.03;99344.03;1735452;82;25895;-66
2021/08/17 02:29:34;;;;;;;15.70;12.00;;;;;;;17.97;89.98;99344.02;1735635;82;25777;-67
2021/08/17 02:32:01;;;;;;;17.90;13.58;;;;;;;17.93;90.07;99348.69;1735461;82;25692;-67
2021/08/17 02:34:27;;;;;;;16.97;12.82;;;;;;;17.89;89.87;99342.39;1735586;82;25676;-67
2021/08/17 02:36:53;;;;;;;15.58;12.93;;;;;;;17.87;89.96;99337.89;1735675;82;28044;-67
2021/08/17 02:39:19;;;;;;;20.62;12.93;;;;;;;17.84;89.98;99327.67;1735514;82;25724;-67
2021/08/17 02:41:46;;;;;;;19.23;12.30;;;;;;;17.81;89.96;99325.14;1735651;82;25696;-67
2021/08/17 02:44:12;;;;;;;16.60;12.33;;;;;;;17.79;90.08;99333.50;1735498;82;25656;-67
2021/08/17 02:46:38;;;;;;;14.87;11.45;;;;;;;17.78;90.04;99340.94;1735606;82;25665;-67
2021/08/17 02:49:05;;;;;;;21.10;12.47;;;;;;;17.74;89.83;99359.25;1735565;82;27326;-67
2021/08/17 02:51:32;;;;;;;16.30;11.73;;;;;;;17.71;89.91;99375.08;1735458;82;25800;-66
2021/08/17 02:53:58;;;;;;;15.68;11.88;;;;;;;17.68;89.86;99386.77;1706317;82;25746;-67
2021/08/17 02:56:24;;;;;;;17.15;11.90;;;;;;;17.67;89.99;99392.02;1735522;82;25707;-66
2021/08/17 02:58:50;;;;;;;15.00;13.10;;;;;;;17.61;89.77;99394.33;1735526;82;25753;-67
2021/08/17 03:01:17;;;;;;;21.02;12.90;;;;;;;17.52;89.70;99391.11;1735497;82;27390;-66
2021/08/17 03:03:43;;;;;;;15.75;11.93;;;;;;;17.50;89.85;99396.17;1735457;82;25641;-66
2021/08/17 03:06:09;;;;;;;16.95;12.88;;;;;;;17.44;89.75;99388.91;1735451;82;25674;-66
2021/08/17 03:08:36;;;;;;;18.95;12.82;;;;;;;17.40;89.80;99385.94;1735443;82;25699;-66
2021/08/17 03:11:05;;;;;;;18.07;12.55;;;;;;;17.36;90.00;99385.91;1735550;82;25687;-66
2021/08/17 03:13:32;;;;;;;20.20;13.25;;;;;;;17.34;90.27;99388.23;1735655;82;28048;-66
2021/08/17 03:15:59;;;;;;;18.02;13.28;;;;;;;17.31;90.19;99397.19;1735331;82;25796;-67
2021/08/17 03:18:25;;;;;;;16.07;11.97;;;;;;;17.24;90.17;99388.34;1735472;82;25685;-67
2021/08/17 03:20:53;;;;;;;19.23;12.43;;;;;;;17.20;90.22;99390.81;1735480;82;25737;-67
2021/08/17 03:23:20;;;;;;;21.23;12.73;;;;;;;17.14;90.29;99389.02;1735481;82;25698;-66
2021/08/17 03:25:46;;;;;;;20.23;12.50;;;;;;;17.10;90.31;99388.20;1735442;82;27419;-67
2021/08/17 03:28:12;;;;;;;19.32;11.97;;;;;;;17.08;90.33;99385.07;1735380;82;25729;-67
2021/08/17 03:30:39;;;;;;;18.65;12.82;;;;;;;17.06;90.65;99377.24;1735398;82;25682;-67
2021/08/17 03:33:05;;;;;;;19.20;12.50;;;;;;;17.07;90.75;99382.12;1735472;82;25729;-68
2021/08/17 03:35:32;;;;;;;17.62;13.15;;;;;;;17.06;90.85;99387.37;1735443;82;25728;-67
2021/08/17 03:37:59;;;;;;;16.02;12.33;;;;;;;17.05;90.84;99389.32;1735400;82;27443;-68
2021/08/17 03:40:26;;;;;;;18.57;12.13;;;;;;;17.06;90.98;99385.44;1735330;82;25798;-67
2021/08/17 03:42:53;;;;;;;16.57;12.73;;;;;;;17.05;90.91;99379.76;1735455;82;25717;-67
2021/08/17 03:45:21;;;;;;;20.08;13.48;;;;;;;17.05;90.96;99380.34;1735277;82;25838;-67
2021/08/17 03:47:49;;;;;;;15.18;12.50;;;;;;;17.06;91.02;99390.91;1735472;82;26368;-67
2021/08/17 03:50:17;;;;;;;18.80;13.05;;;;;;;17.07;91.06;99395.19;1735401;82;27334;-67
2021/08/17 03:52:44;;;;;;;20.25;13.25;;;;;;;17.07;91.12;99399.29;1735363;82;25819;-66
2021/08/17 03:55:13;;;;;;;18.65;13.22;;;;;;;17.07;91.06;99397.14;1735446;82;26397;-67
2021/08/17 03:57:40;;;;;;;19.95;13.88;;;;;;;17.06;91.03;99386.80;1706121;82;26470;-67
2021/08/17 04:00:17;;;;;;;19.02;12.95;;;;;;;17.07;91.08;99392.45;1735396;82;25826;-67
2021/08/17 04:02:44;;;;;;;24.30;14.28;;;;;;;17.09;91.11;99396.19;1735440;82;28025;-67
2021/08/17 04:05:12;;;;;;;22.37;14.23;;;;;;;17.09;91.11;99390.72;1735222;82;25963;-67
2021/08/17 04:07:39;;;;;;;23.27;14.87;;;;;;;17.10;91.20;99389.57;1735397;82;25752;-67
2021/08/17 04:10:08;;;;;;;19.98;14.30;;;;;;;17.10;90.97;99399.91;1735357;82;25744;-66
2021/08/17 04:12:35;;;;;;;16.52;14.58;;;;;;;17.11;91.04;99389.20;1706141;82;25741;-66
2021/08/17 04:15:02;;;;;;;21.12;15.08;;;;;;;17.13;91.08;99391.56;1735367;82;27407;-66
2021/08/17 04:17:29;;;;;;;20.45;14.55;;;;;;;17.16;91.32;99396.25;1735287;82;25762;-66
2021/08/17 04:19:55;;;;;;;20.70;14.73;;;;;;;17.16;91.16;99396.25;1735267;82;25717;-66
2021/08/17 04:22:22;;;;;;;19.15;13.48;;;;;;;17.17;91.12;99388.27;1735328;82;26392;-66
2021/08/17 04:24:49;;;;;;;18.87;13.88;;;;;;;17.17;91.16;99376.75;1735348;82;25709;-66
2021/08/17 04:27:16;;;;;;;21.80;14.75;;;;;;;17.19;91.24;99380.48;1735336;82;27374;-66
2021/08/17 04:29:44;;;;;;;15.78;13.98;;;;;;;17.21;91.30;99389.08;1735318;82;25729;-66
2021/08/17 04:32:12;;;;;;;19.48;13.70;;;;;;;17.22;91.17;99400.23;1735345;82;25761;-66
2021/08/17 04:34:39;;;;;;;18.20;13.08;;;;;;;17.17;90.56;99416.38;1735244;82;25930;-67
2021/08/17 04:37:06;;;;;;;17.98;11.93;;;;;;;17.13;90.45;99414.19;1735340;82;25722;-66
2021/08/17 04:39:33;;;;;;;19.35;12.23;;;;;;;17.12;90.45;99419.44;1735311;82;27407;-67
2021/08/17 04:41:59;;;;;;;16.52;11.22;;;;;;;17.10;90.35;99412.80;1735180;82;25739;-66
2021/08/17 04:44:26;;;;;;;13.78;11.18;;;;;;;17.06;90.22;99422.32;1735270;82;25721;-66
2021/08/17 04:46:52;;;;;;;14.50;9.83;;;;;;;17.05;90.25;99429.52;1735311;82;25765;-66
2021/08/17 04:49:19;;;;;;;16.75;9.95;;;;;;;17.02;90.00;99435.73;1735290;82;26390;-65
2021/08/17 04:51:45;;;;;;;13.25;9.90;;;;;;;16.97;90.14;99441.74;1735313;82;27447;-67
2021/08/17 04:54:11;;;;;;;14.00;11.30;;;;;;;16.97;90.31;99447.77;1735153;82;27171;-67
2021/08/17 04:56:38;;;;;;;18.23;11.85;;;;;;;16.95;90.31;99452.23;1735326;82;25742;-67
2021/08/17 04:59:05;;;;;;;17.12;12.55;;;;;;;16.91;90.01;99455.51;1735242;82;26270;-67
2021/08/17 05:01:31;;;;;;;17.35;12.13;;;;;;;16.89;90.23;99457.83;1735219;82;25728;-67
2021/08/17 05:03:59;;;;;;;16.52;10.48;;;;;;;16.86;90.23;99461.30;1735236;82;27397;-67
2021/08/17 05:06:26;;;;;;;15.60;10.85;;;;;;;16.79;89.83;99466.66;1735177;82;25867;-67
2021/08/17 05:08:52;;;;;;;15.58;11.75;;;;;;;16.73;89.56;99456.61;1735347;82;25762;-67
2021/08/17 05:11:18;;;;;;;38.67;20.97;;;;;;;16.72;89.86;99457.78;1735219;82;25733;-68
2021/08/17 05:13:44;;;;;;;18.67;11.70;;;;;;;16.71;90.21;99460.88;1735307;82;25642;-68
2021/08/17 05:16:11;;;;;;;14.85;10.53;;;;;;;16.69;89.93;99459.89;1735185;82;27543;-67
2021/08/17 05:18:37;;;;;;;14.30;10.78;;;;;;;16.69;90.39;99461.84;1734766;82;25676;-67
2021/08/17 05:21:04;;;;;;;12.25;10.03;;;;;;;16.69;90.51;99467.30;1734379;82;26385;-68
2021/08/17 05:23:30;;;;;;;15.13;9.78;;;;;;;16.66;89.85;99472.91;1734167;82;25689;-67
2021/08/17 05:25:56;;;;;;;13.13;9.40;;;;;;;16.62;89.87;99482.42;1734942;82;25707;-68
2021/08/17 05:28:23;;;;;;;15.23;9.80;;;;;;;16.59;89.74;99481.78;1735174;82;28107;-67
2021/08/17 05:30:50;;;;;;;20.17;9.95;;;;;;;16.61;90.36;99482.78;1735108;82;25726;-67
2021/08/17 05:33:17;;;;;;;15.72;9.83;;;;;;;16.62;90.68;99491.20;1735285;82;25691;-67
2021/08/17 05:35:44;;;;;;;13.85;10.68;;;;;;;16.64;90.63;99499.02;1735264;82;25813;-67
2021/08/17 05:38:11;;;;;;;13.03;9.18;;;;;;;16.61;90.22;99495.84;1735199;82;25669;-67
2021/08/17 05:40:37;;;;;;;11.78;7.47;;;;;;;16.58;89.72;99508.09;1735201;82;27604;-67
2021/08/17 05:43:04;;;;;;;10.80;7.85;;;;;;;16.53;89.18;99507.04;1735149;82;26368;-65
2021/08/17 05:45:32;;;;;;;11.63;7.90;;;;;;;16.48;89.05;99511.45;1735112;82;25784;-66
2021/08/17 05:47:59;;;;;;;11.48;8.28;;;;;;;16.43;89.26;99512.57;1735221;82;26229;-67
2021/08/17 05:50:25;;;;;;;14.40;9.05;;;;;;;16.39;89.26;99517.95;1728907;82;25664;-66
2021/08/17 05:52:51;;;;;;;11.80;7.72;;;;;;;16.34;89.15;99527.81;1714432;82;27343;-67
2021/08/17 05:55:18;;;;;;;9.58;7.60;;;;;;;16.27;89.03;99533.17;1722366;82;25762;-67
2021/08/17 05:57:59;;;;;;;9.43;8.00;;;;;;;16.25;89.23;99532.75;1735197;82;25692;-67
2021/08/17 06:00:27;;;;;;;12.20;7.47;;;;;;;16.18;88.72;99534.78;1735161;82;25701;-67
2021/08/17 06:02:53;;;;;;;13.55;8.10;;;;;;;16.11;88.81;99544.22;1735173;82;25662;-67
2021/08/17 06:05:20;;;;;;;14.03;7.80;;;;;;;16.07;89.01;99555.63;1735151;82;27323;-67
2021/08/17 06:07:49;;;;;;;11.12;7.87;;;;;;;16.04;89.08;99557.75;1715955;81;25796;-67
2021/08/17 06:10:17;;;;;;;12.77;8.67;;;;;;;15.98;88.72;99562.70;1706061;84;25742;-67
2021/08/17 06:12:44;;;;;;;11.03;8.50;;;;;;;15.93;88.70;99559.49;1705731;84;26082;-67
2021/08/17 06:15:13;;;;;;;12.13;8.33;;;;;;;15.89;89.03;99563.52;1705826;84;25782;-67
2021/08/17 06:17:39;;;;;;;12.63;7.33;;;;;;;15.83;88.84;99567.69;1705714;84;27409;-67
2021/08/17 06:20:09;;;;;;;9.55;7.30;;;;;;;15.76;88.52;99569.70;1705657;84;25908;-67
2021/08/17 06:22:35;;;;;;;;;;;;;;;15.69;88.58;99573.05;1708325;84;25725;-67
2021/08/17 06:25:02;;;;;;;10.75;6.50;;;;;;;15.66;89.06;99575.16;1705679;84;25996;-67
2021/08/17 06:27:30;;;;;;;7.80;6.08;;;;;;;15.63;89.44;99581.33;1705754;84;25782;-67
2021/08/17 06:29:56;;;;;;;9.68;5.80;;;;;;;15.63;89.40;99588.70;1705754;84;28160;-67
2021/08/17 06:32:22;;;;;;;8.45;5.97;;;;;;;15.63;89.48;99587.33;1705622;84;27195;-67
2021/08/17 06:34:48;;;;;;;9.63;5.50;;;;;;;15.66;89.74;99585.26;1705678;84;25689;-67
2021/08/17 06:37:14;;;;;;;7.42;5.35;;;;;;;15.65;89.70;99587.20;1705711;84;26096;-67
2021/08/17 06:39:41;;;;;;;6.92;5.00;;;;;;;15.65;89.40;99589.93;1705788;84;25745;-67
2021/08/17 06:42:07;;;;;;;9.25;5.58;;;;;;;15.68;90.18;99593.30;1705717;84;27432;-67
2021/08/17 06:44:34;;;;;;;8.38;5.12;;;;;;;15.74;90.41;99584.83;1705792;84;25770;-67
2021/08/17 06:47:00;;;;;;;10.70;5.70;;;;;;;15.79;90.45;99590.80;1677424;84;25652;-67
2021/08/17 06:49:27;;;;;;;7.75;5.58;;;;;;;15.87;91.01;99591.16;1705825;84;27468;-68
2021/08/17 06:51:53;;;;;;;7.67;5.67;;;;;;;15.91;90.90;99593.94;1705762;84;25702;-67
2021/08/17 06:54:19;;;;;;;6.83;4.33;;;;;;;15.95;90.05;99591.27;1705767;84;27451;-68
2021/08/17 06:56:45;;;;;;;7.28;4.22;;;;;;;15.97;90.07;99590.33;1705672;84;25735;-68
2021/08/17 06:59:12;;;;;;;7.35;4.70;;;;;;;16.02;90.29;99600.94;1705742;84;25707;-68
2021/08/17 07:01:38;;;;;;;5.78;3.77;;;;;;;16.04;89.98;99596.72;1705795;84;25674;-67
2021/08/17 07:04:04;;;;;;;9.13;3.80;;;;;;;16.00;89.08;99598.58;1705783;84;25695;-67
2021/08/17 07:06:34;;;;;;;7.62;4.10;;;;;;;15.97;88.30;99602.61;1705737;84;27394;-67
2021/08/17 07:09:00;;;;;;;6.55;4.20;;;;;;;15.92;88.37;99594.17;1705319;84;25781;-67
2021/08/17 07:11:26;;;;;;;8.90;4.47;;;;;;;15.92;88.60;99606.44;1705654;84;25741;-67
2021/08/17 07:13:52;;;;;;;7.10;4.08;;;;;;;15.89;88.25;99608.52;1705813;84;25861;-67
2021/08/17 07:16:18;;;;;;;5.58;4.05;;;;;;;15.86;88.96;99605.92;1705839;84;25674;-67
2021/08/17 07:18:44;;;;;;;6.47;3.85;;;;;;;15.89;88.00;99599.55;1705604;84;27343;-67
2021/08/17 07:21:11;;;;;;;9.70;4.15;;;;;;;15.87;88.02;99613.55;1705738;84;25690;-67
2021/08/17 07:23:37;;;;;;;6.67;3.90;;;;;;;15.86;88.16;99613.33;1705723;84;26398;-67
2021/08/17 07:26:03;;;;;;;7.35;3.62;;;;;;;15.86;87.93;99618.78;1705594;84;25730;-67
2021/08/17 07:28:31;;;;;;;7.50;3.58;;;;;;;15.85;87.20;99614.46;1705768;84;25722;-67
2021/08/17 07:30:58;;;;;;;4.87;3.20;;;;;;;15.87;88.34;99615.70;1705703;84;27328;-67
2021/08/17 07:33:24;;;;;;;6.30;2.90;;;;;;;15.91;87.71;99616.34;1705637;84;27105;-67
2021/08/17 07:35:51;;;;;;;5.20;3.15;;;;;;;15.90;87.45;99620.20;1705767;84;25940;-67
2021/08/17 07:38:17;;;;;;;7.92;3.17;;;;;;;15.92;87.79;99610.53;1705625;84;25784;-66
2021/08/17 07:40:44;;;;;;;6.40;3.25;;;;;;;16.01;87.80;99609.70;1677496;84;25745;-66
2021/08/17 07:43:11;;;;;;;5.40;3.33;;;;;;;16.09;88.18;99612.56;1705813;84;27584;-67
2021/08/17 07:45:37;;;;;;;3.58;2.20;;;;;;;16.16;87.06;99612.70;1705591;84;25844;-66
2021/08/17 07:48:05;;;;;;;8.13;2.42;;;;;;;16.16;85.37;99623.03;1705667;84;25741;-66
2021/08/17 07:50:32;;;;;;;5.30;2.25;;;;;;;16.16;85.35;99614.85;1705765;84;25716;-66
2021/08/17 07:52:58;;;;;;;8.00;2.62;;;;;;;16.12;82.91;99620.02;1705761;84;25737;-66
2021/08/17 07:55:24;;;;;;;5.20;2.50;;;;;;;16.06;84.17;99626.36;1705709;84;28297;-66
2021/08/17 07:57:51;;;;;;;12.30;2.75;;;;;;;16.09;84.38;99630.29;1705688;84;25805;-66
2021/08/17 08:00:18;;;;;;;8.60;2.52;;;;;;;16.28;86.28;99635.72;1677389;84;25714;-66
2021/08/17 08:02:44;;;;;;;7.05;2.22;;;;;;;16.60;86.74;99621.80;1705743;84;26334;-65
2021/08/17 08:05:12;;;;;;;6.30;2.42;;;;;;;16.85;85.56;99629.63;1681760;84;26490;-65
2021/08/17 08:07:39;;;;;;;8.53;2.60;;;;;;;17.07;86.15;99627.41;1705659;84;29467;-65
2021/08/17 08:10:06;;;;;;;6.22;2.30;;;;;;;17.20;84.98;99629.36;1705642;84;25877;-64
2021/08/17 08:12:33;;;;;;;8.30;3.33;;;;;;;17.25;82.97;99629.03;1701337;84;25685;-64
2021/08/17 08:14:59;;;;;;;8.03;3.08;;;;;;;17.22;81.75;99630.36;1705561;84;25730;-64
2021/08/17 08:17:26;;;;;;;7.10;2.72;;;;;;;17.33;82.36;99632.64;1705843;84;25825;-65
2021/08/17 08:19:52;;;;;;;7.15;2.72;;;;;;;17.47;84.33;99627.92;1705771;84;28081;-65
2021/08/17 08:22:18;;;;;;;4.62;2.17;;;;;;;17.63;84.53;99628.53;1705605;84;25854;-64
2021/08/17 08:24:44;;;;;;;6.87;2.35;;;;;;;17.76;82.75;99633.18;1705650;84;26318;-64
2021/08/17 08:27:14;;;;;;;6.15;2.05;;;;;;;17.77;82.01;99638.06;1705614;84;25701;-64
2021/08/17 08:29:41;;;;;;;;;;;;;;;17.77;80.07;99639.43;1708271;84;26130;-64
2021/08/17 08:32:07;;;;;;;8.00;3.12;;;;;;;17.68;77.67;99645.19;1705771;84;28092;-64
2021/08/17 08:34:34;;;;;;;3.80;2.17;;;;;;;17.68;79.04;99650.07;1705678;84;25756;-64
2021/08/17 08:37:00;;;;;;;6.83;2.10;;;;;;;17.71;78.03;99655.39;1705662;84;25750;-64
2021/08/17 08:39:26;;;;;;;5.37;2.62;;;;;;;17.70;78.19;99653.80;1705644;84;25758;-64
2021/08/17 08:41:53;;;;;;;6.45;2.15;;;;;;;17.71;78.34;99664.97;1705738;84;25722;-64
2021/08/17 08:44:19;;;;;;;4.33;2.02;;;;;;;17.65;76.29;99664.48;1705713;84;27252;-63
2021/08/17 08:46:46;;;;;;;6.95;2.45;;;;;;;17.53;75.25;99671.56;1705577;84;25729;-63
2021/08/17 08:49:14;;;;;;;5.70;2.67;;;;;;;17.42;75.46;99670.63;1705766;84;25723;-62
2021/08/17 08:51:40;;;;;;;8.05;2.67;;;;;;;17.36;75.33;99677.00;1705620;84;26016;-63
2021/08/17 08:54:07;;;;;;;4.80;2.70;;;;;;;17.24;74.83;99678.01;1705722;84;25941;-63
2021/08/17 08:56:35;;;;;;;4.45;2.85;;;;;;;17.18;74.99;99678.91;1705680;84;27329;-63
2021/08/17 08:59:02;;;;;;;5.83;2.87;;;;;;;17.13;74.48;99686.64;1722606;82;25708;-62
2021/08/17 09:01:29;;;;;;;5.37;3.17;;;;;;;17.06;73.82;99686.52;1735017;82;25701;-63
2021/08/17 09:03:57;;;;;;;4.50;3.00;;;;;;;17.00;74.93;99691.52;1705801;82;25716;-62
2021/08/17 09:06:27;;;;;;;5.03;3.33;;;;;;;16.99;74.94;99699.48;1734958;82;26037;-62
2021/08/17 09:09:16;;;;;;;3.77;2.90;;;;;;;17.00;75.67;99703.81;1735086;82;28012;-62
2021/08/17 09:11:49;;;;;;;4.15;2.87;;;;;;;17.03;74.90;99703.67;1735088;82;25738;-62
2021/08/17 09:14:36;;;;;;;7.58;3.25;;;;;;;17.03;75.09;99697.62;1735074;82;25784;-62
2021/08/17 09:17:06;;;;;;;4.62;2.50;;;;;;;16.96;74.09;99703.76;1735023;82;26062;-62
2021/08/17 09:19:37;;;;;;;7.08;2.72;;;;;;;16.93;73.81;99707.22;1735066;82;26462;-63
2021/08/17 09:22:21;;;;;;;6.97;2.80;;;;;;;16.95;73.77;99709.58;1735130;82;27379;-62
2021/08/17 09:24:52;;;;;;;5.65;2.10;;;;;;;17.03;75.92;99718.11;1734912;82;25685;-63
2021/08/17 09:27:28;;;;;;;7.28;2.25;;;;;;;17.12;74.25;99718.63;1735068;82;25653;-62
2021/08/17 09:30:06;;;;;;;9.00;2.92;;;;;;;17.17;71.88;99725.14;1734739;82;25685;-62
2021/08/17 09:32:33;;;;;;;7.05;2.90;;;;;;;17.21;72.28;99716.22;1735160;82;25975;-62
2021/08/17 09:35:03;;;;;;;6.78;2.62;;;;;;;17.32;72.43;99721.27;1735049;82;28121;-61
2021/08/17 09:37:33;;;;;;;5.55;2.87;;;;;;;17.47;73.47;99714.05;1735026;82;25718;-62
2021/08/17 09:40:02;;;;;;;;;;;;;;;17.62;72.77;99724.60;1737606;82;25808;-62
2021/08/17 09:42:34;;;;;;;7.15;3.58;;;;;;;17.76;71.11;99729.47;1735160;82;26283;-62
2021/08/17 09:45:09;;;;;;;7.10;3.05;;;;;;;17.82;70.70;99727.99;1735011;82;25906;-62
2021/08/17 09:47:40;;;;;;;8.73;3.55;;;;;;;17.90;70.42;99731.84;1734978;82;27347;-62
2021/08/17 09:50:23;;;;;;;7.37;3.37;;;;;;;17.87;68.64;99734.53;1735012;82;26351;-62
2021/08/17 09:53:12;;;;;;;6.65;3.40;;;;;;;17.82;68.84;99732.09;1735092;82;25712;-63
2021/08/17 09:55:52;;;;;;;5.67;3.15;;;;;;;17.80;68.68;99726.22;1735183;82;35221;-63
2021/08/17 09:58:33;;;;;;;5.20;3.30;;;;;;;17.77;68.93;99720.89;1735263;82;26435;-62
2021/08/17 10:01:05;;;;;;;6.50;3.77;;;;;;;17.79;68.08;99735.57;1735021;82;27489;-63
2021/08/17 10:03:33;;;;;;;9.68;4.97;;;;;;;17.83;69.64;99738.56;1707010;82;25818;-62
2021/08/17 10:06:01;;;;;;;7.97;3.85;;;;;;;17.99;69.51;99749.92;1705884;82;25852;-63
2021/08/17 10:08:30;;;;;;;4.87;3.55;;;;;;;18.31;71.71;99742.09;1735014;82;25885;-63
2021/08/17 10:10:58;;;;;;;8.23;4.00;;;;;;;18.66;71.25;99746.33;1735207;82;25726;-62
2021/08/17 10:13:27;;;;;;;9.40;3.83;;;;;;;18.75;67.86;99741.34;1735026;82;27386;-62
2021/08/17 10:15:54;;;;;;;6.70;3.55;;;;;;;18.69;66.76;99744.22;1735053;82;25802;-62
2021/08/17 10:18:31;;;;;;;8.30;3.95;;;;;;;18.55;67.10;99748.98;1735123;82;25772;-62
2021/08/17 10:21:06;;;;;;;6.00;3.58;;;;;;;18.40;66.83;99756.25;1735208;82;25750;-63
2021/08/17 10:23:29;;;;;;;5.75;3.35;;;;;;;18.23;66.11;99750.01;1734219;82;25713;-63
2021/08/17 10:25:59;;;;;;;6.35;3.58;;;;;;;18.12;66.42;99763.58;1705595;82;27442;-62
2021/08/17 10:28:30;;;;;;;5.67;3.37;;;;;;;18.08;67.41;99770.38;1735188;82;25661;-63
2021/08/17 10:31:13;;;;;;;6.33;3.00;;;;;;;18.05;63.52;99784.80;1735163;82;25776;-63
2021/08/17 10:33:51;;;;;;;7.62;3.10;;;;;;;17.97;65.13;99759.09;1733886;82;25643;-63
2021/08/17 10:36:43;;;;;;;4.30;2.70;;;;;;;17.96;66.77;99756.13;1735187;82;25844;-63
2021/08/17 10:39:25;;;;;;;6.25;2.98;;;;;;;18.01;66.78;99749.75;1735175;82;27414;-63
2021/08/17 10:41:53;;;;;;;4.87;3.40;;;;;;;18.26;66.86;99754.15;1735045;82;25836;-63
2021/08/17 10:44:32;;;;;;;6.53;3.10;;;;;;;18.83;67.01;99756.72;1735166;82;29945;-63
2021/08/17 10:47:11;;;;;;;5.85;3.30;;;;;;;19.12;65.76;99757.52;1735278;82;25910;-63
2021/08/17 10:49:46;;;;;;;8.65;3.10;;;;;;;19.17;65.06;99755.80;1734899;82;25725;-64
2021/08/17 10:52:32;;;;;;;8.45;3.60;;;;;;;19.04;63.90;99751.99;1735117;82;27321;-62
2021/08/17 10:55:26;;;;;;;7.03;3.45;;;;;;;18.99;63.66;99777.59;1734696;82;25640;-63
2021/08/17 10:58:00;;;;;;;5.92;3.42;;;;;;;18.76;62.43;99788.70;1731973;82;25696;-62
2021/08/17 11:00:50;;;;;;;4.47;3.08;;;;;;;18.63;63.11;99782.72;1735203;82;26077;-62
2021/08/17 11:03:36;;;;;;;4.67;3.22;;;;;;;18.63;62.63;99788.97;1735208;82;25673;-62
2021/08/17 11:06:03;;;;;;;6.97;3.02;;;;;;;18.55;62.80;99790.65;1723178;82;27402;-63
2021/08/17 11:08:36;;;;;;;4.65;3.37;;;;;;;18.57;63.18;99789.69;1735093;82;25770;-63
2021/08/17 11:11:19;;;;;;;5.50;2.83;;;;;;;18.58;62.12;99796.16;1735089;82;25768;-63
2021/08/17 11:14:09;;;;;;;4.50;2.98;;;;;;;18.53;63.79;99792.98;1735049;82;25717;-62
2021/08/17 11:16:48;;;;;;;;;;;;;;;18.53;62.51;99795.13;1737811;82;25682;-62
2021/08/17 11:19:15;;;;;;;4.05;2.42;;;;;;;18.51;62.38;99807.60;1735199;82;27392;-62
2021/08/17 11:21:46;;;;;;;6.30;2.98;;;;;;;18.48;62.07;99811.30;1734939;82;25760;-63
2021/08/17 11:24:24;;;;;;;4.20;2.90;;;;;;;18.42;62.72;99813.38;1735175;82;25694;-62
2021/08/17 11:27:04;;;;;;;5.25;2.90;;;;;;;18.35;62.39;99799.61;1735147;82;25644;-63
2021/08/17 11:29:41;;;;;;;7.05;3.02;;;;;;;18.26;61.76;99809.48;1732936;82;25792;-63
2021/08/17 11:32:22;;;;;;;3.65;2.75;;;;;;;18.09;60.88;99814.36;1735136;82;27436;-65
2021/08/17 11:34:49;;;;;;;5.37;2.65;;;;;;;18.02;61.82;99806.65;1734990;82;25796;-64
2021/08/17 11:37:16;;;;;;;5.28;3.22;;;;;;;18.01;63.15;99802.33;1705926;82;25773;-65
2021/08/17 11:39:52;;;;;;;5.85;3.42;;;;;;;18.15;62.54;99814.03;1735001;82;26372;-64